sensor_id;sensor_type;location;lat;lon;timestamp;P1;durP1;ratioP1;P2;durP2;ratioP2
7239;SDS011;3661;53.288;10.458;2023-11-19T00:00:43;870.40;;;792.45;;
7239;SDS011;3661;53.288;10.458;2023-11-19T00:03:15;875.85;;;797.85;;
7239;SDS011;3661;53.288;10.458;2023-11-19T00:05:47;860.90;;;783.13;;
7239;SDS011;3661;53.288;10.458;2023-11-19T00:08:20;870.40;;;792.33;;
7239;SDS011;3661;53.288;10.458;2023-11-19T00:10:55;871.45;;;793.63;;
7239;SDS011;3661;53.288;10.458;2023-11-19T00:13:27;864.40;;;786.85;;
7239;SDS011;3661;53.288;10.458;2023-11-19T00:16:00;876.58;;;798.88;;
7239;SDS011;3661;53.288;10.458;2023-11-19T00:18:34;881.83;;;804.20;;
7239;SDS011;3661;53.288;10.458;2023-11-19T00:21:06;868.97;;;791.15;;
7239;SDS011;3661;53.288;10.458;2023-11-19T00:23:40;880.00;;;802.40;;
7239;SDS011;3661;53.288;10.458;2023-11-19T00:26:12;864.47;;;786.58;;
7239;SDS011;3661;53.288;10.458;2023-11-19T00:28:45;876.30;;;798.75;;
7239;SDS011;3661;53.288;10.458;2023-11-19T00:31:19;884.90;;;807.03;;
7239;SDS011;3661;53.288;10.458;2023-11-19T00:33:51;868.17;;;790.47;;
7239;SDS011;3661;53.288;10.458;2023-11-19T00:36:25;861.53;;;783.90;;
7239;SDS011;3661;53.288;10.458;2023-11-19T00:38:57;867.38;;;789.78;;
7239;SDS011;3661;53.288;10.458;2023-11-19T00:41:29;865.63;;;787.72;;
7239;SDS011;3661;53.288;10.458;2023-11-19T00:44:01;862.03;;;784.23;;
7239;SDS011;3661;53.288;10.458;2023-11-19T00:46:34;861.58;;;784.10;;
7239;SDS011;3661;53.288;10.458;2023-11-19T00:49:06;872.35;;;794.63;;
7239;SDS011;3661;53.288;10.458;2023-11-19T00:51:41;878.85;;;801.25;;
7239;SDS011;3661;53.288;10.458;2023-11-19T00:54:15;856.90;;;779.28;;
7239;SDS011;3661;53.288;10.458;2023-11-19T00:56:47;879.20;;;801.30;;
7239;SDS011;3661;53.288;10.458;2023-11-19T00:59:22;865.53;;;787.55;;
7239;SDS011;3661;53.288;10.458;2023-11-19T01:01:55;875.88;;;797.97;;
7239;SDS011;3661;53.288;10.458;2023-11-19T01:04:27;887.77;;;809.67;;
7239;SDS011;3661;53.288;10.458;2023-11-19T01:07:00;889.03;;;810.88;;
7239;SDS011;3661;53.288;10.458;2023-11-19T01:09:34;879.28;;;801.30;;
7239;SDS011;3661;53.288;10.458;2023-11-19T01:12:06;862.57;;;785.33;;
7239;SDS011;3661;53.288;10.458;2023-11-19T01:14:39;877.80;;;799.97;;
7239;SDS011;3661;53.288;10.458;2023-11-19T01:17:12;894.33;;;816.22;;
7239;SDS011;3661;53.288;10.458;2023-11-19T01:19:44;865.13;;;787.17;;
7239;SDS011;3661;53.288;10.458;2023-11-19T01:22:17;868.38;;;790.47;;
7239;SDS011;3661;53.288;10.458;2023-11-19T01:24:49;880.55;;;803.08;;
7239;SDS011;3661;53.288;10.458;2023-11-19T01:27:22;879.47;;;801.63;;
7239;SDS011;3661;53.288;10.458;2023-11-19T01:29:54;879.85;;;801.95;;
7239;SDS011;3661;53.288;10.458;2023-11-19T01:32:28;886.30;;;808.25;;
7239;SDS011;3661;53.288;10.458;2023-11-19T01:35:00;893.40;;;815.33;;
7239;SDS011;3661;53.288;10.458;2023-11-19T01:37:32;880.80;;;802.90;;
7239;SDS011;3661;53.288;10.458;2023-11-19T01:40:05;884.97;;;807.38;;
7239;SDS011;3661;53.288;10.458;2023-11-19T01:42:40;858.63;;;780.78;;
7239;SDS011;3661;53.288;10.458;2023-11-19T01:45:21;873.47;;;795.63;;
7239;SDS011;3661;53.288;10.458;2023-11-19T01:48:00;886.28;;;808.20;;
7239;SDS011;3661;53.288;10.458;2023-11-19T01:50:34;881.47;;;803.57;;
7239;SDS011;3661;53.288;10.458;2023-11-19T01:53:06;874.58;;;796.65;;
7239;SDS011;3661;53.288;10.458;2023-11-19T01:55:39;886.80;;;808.88;;
7239;SDS011;3661;53.288;10.458;2023-11-19T01:58:11;891.53;;;813.60;;
7239;SDS011;3661;53.288;10.458;2023-11-19T02:00:44;880.23;;;802.23;;
7239;SDS011;3661;53.288;10.458;2023-11-19T02:03:18;867.25;;;789.60;;
7239;SDS011;3661;53.288;10.458;2023-11-19T02:05:51;870.70;;;792.57;;
7239;SDS011;3661;53.288;10.458;2023-11-19T02:08:23;890.95;;;812.95;;
7239;SDS011;3661;53.288;10.458;2023-11-19T02:10:56;895.45;;;817.58;;
7239;SDS011;3661;53.288;10.458;2023-11-19T02:13:28;891.53;;;814.08;;
7239;SDS011;3661;53.288;10.458;2023-11-19T02:16:01;889.88;;;812.65;;
7239;SDS011;3661;53.288;10.458;2023-11-19T02:18:34;884.53;;;807.93;;
7239;SDS011;3661;53.288;10.458;2023-11-19T02:21:07;888.40;;;811.30;;
7239;SDS011;3661;53.288;10.458;2023-11-19T02:23:40;888.67;;;811.47;;
7239;SDS011;3661;53.288;10.458;2023-11-19T02:26:14;868.10;;;791.08;;
7239;SDS011;3661;53.288;10.458;2023-11-19T02:28:56;890.85;;;813.63;;
7239;SDS011;3661;53.288;10.458;2023-11-19T02:31:28;906.72;;;828.78;;
7239;SDS011;3661;53.288;10.458;2023-11-19T02:34:05;891.00;;;814.10;;
7239;SDS011;3661;53.288;10.458;2023-11-19T02:36:37;886.42;;;809.67;;
7239;SDS011;3661;53.288;10.458;2023-11-19T02:39:11;900.60;;;823.28;;
7239;SDS011;3661;53.288;10.458;2023-11-19T02:41:43;900.10;;;823.20;;
7239;SDS011;3661;53.288;10.458;2023-11-19T02:44:17;884.83;;;808.45;;
7239;SDS011;3661;53.288;10.458;2023-11-19T02:46:50;897.33;;;820.63;;
7239;SDS011;3661;53.288;10.458;2023-11-19T02:49:22;898.58;;;821.65;;
7239;SDS011;3661;53.288;10.458;2023-11-19T02:51:54;905.72;;;828.88;;
7239;SDS011;3661;53.288;10.458;2023-11-19T02:54:29;880.30;;;803.50;;
7239;SDS011;3661;53.288;10.458;2023-11-19T02:57:05;897.38;;;820.70;;
7239;SDS011;3661;53.288;10.458;2023-11-19T02:59:43;898.88;;;822.08;;
7239;SDS011;3661;53.288;10.458;2023-11-19T03:02:17;905.13;;;828.23;;
7239;SDS011;3661;53.288;10.458;2023-11-19T03:04:49;902.30;;;824.90;;
7239;SDS011;3661;53.288;10.458;2023-11-19T03:07:21;883.10;;;806.20;;
7239;SDS011;3661;53.288;10.458;2023-11-19T03:09:53;906.85;;;829.40;;
7239;SDS011;3661;53.288;10.458;2023-11-19T03:12:27;889.33;;;812.13;;
7239;SDS011;3661;53.288;10.458;2023-11-19T03:15:00;891.08;;;814.10;;
7239;SDS011;3661;53.288;10.458;2023-11-19T03:17:33;888.10;;;811.03;;
7239;SDS011;3661;53.288;10.458;2023-11-19T03:20:08;894.58;;;817.45;;
7239;SDS011;3661;53.288;10.458;2023-11-19T03:22:45;888.70;;;811.70;;
7239;SDS011;3661;53.288;10.458;2023-11-19T03:25:17;897.43;;;820.43;;
7239;SDS011;3661;53.288;10.458;2023-11-19T03:27:49;881.80;;;804.80;;
7239;SDS011;3661;53.288;10.458;2023-11-19T03:30:22;905.47;;;827.92;;
7239;SDS011;3661;53.288;10.458;2023-11-19T03:32:55;891.65;;;814.30;;
7239;SDS011;3661;53.288;10.458;2023-11-19T03:35:27;900.97;;;823.63;;
7239;SDS011;3661;53.288;10.458;2023-11-19T03:37:59;904.20;;;826.78;;
7239;SDS011;3661;53.288;10.458;2023-11-19T03:40:32;901.10;;;823.30;;
7239;SDS011;3661;53.288;10.458;2023-11-19T03:43:05;899.85;;;822.13;;
7239;SDS011;3661;53.288;10.458;2023-11-19T03:45:38;900.65;;;822.92;;
7239;SDS011;3661;53.288;10.458;2023-11-19T03:48:10;898.22;;;820.35;;
7239;SDS011;3661;53.288;10.458;2023-11-19T03:50:42;907.90;;;830.10;;
7239;SDS011;3661;53.288;10.458;2023-11-19T03:53:14;915.15;;;836.97;;
7239;SDS011;3661;53.288;10.458;2023-11-19T03:55:46;896.70;;;818.30;;
7239;SDS011;3661;53.288;10.458;2023-11-19T03:58:20;926.00;;;847.47;;
7239;SDS011;3661;53.288;10.458;2023-11-19T04:00:53;916.17;;;837.50;;
7239;SDS011;3661;53.288;10.458;2023-11-19T04:03:25;919.53;;;841.00;;
7239;SDS011;3661;53.288;10.458;2023-11-19T04:05:57;914.03;;;835.08;;
7239;SDS011;3661;53.288;10.458;2023-11-19T04:08:29;921.47;;;842.55;;
7239;SDS011;3661;53.288;10.458;2023-11-19T04:11:01;901.95;;;823.08;;
7239;SDS011;3661;53.288;10.458;2023-11-19T04:13:34;890.57;;;811.83;;
7239;SDS011;3661;53.288;10.458;2023-11-19T04:16:08;894.53;;;815.40;;
7239;SDS011;3661;53.288;10.458;2023-11-19T04:18:40;917.80;;;838.63;;
7239;SDS011;3661;53.288;10.458;2023-11-19T04:21:12;922.63;;;843.42;;
7239;SDS011;3661;53.288;10.458;2023-11-19T04:23:44;920.10;;;841.10;;
7239;SDS011;3661;53.288;10.458;2023-11-19T04:26:16;931.92;;;852.78;;
7239;SDS011;3661;53.288;10.458;2023-11-19T04:28:48;921.88;;;842.72;;
7239;SDS011;3661;53.288;10.458;2023-11-19T04:31:22;932.50;;;852.90;;
7239;SDS011;3661;53.288;10.458;2023-11-19T04:33:54;926.53;;;847.95;;
7239;SDS011;3661;53.288;10.458;2023-11-19T04:36:28;934.20;;;855.40;;
7239;SDS011;3661;53.288;10.458;2023-11-19T04:39:00;923.20;;;844.78;;
7239;SDS011;3661;53.288;10.458;2023-11-19T04:41:45;922.38;;;843.80;;
7239;SDS011;3661;53.288;10.458;2023-11-19T04:44:19;916.72;;;838.40;;
7239;SDS011;3661;53.288;10.458;2023-11-19T04:46:52;934.08;;;855.75;;
7239;SDS011;3661;53.288;10.458;2023-11-19T04:49:27;925.58;;;847.08;;
7239;SDS011;3661;53.288;10.458;2023-11-19T04:52:00;924.70;;;846.42;;
7239;SDS011;3661;53.288;10.458;2023-11-19T04:54:35;946.97;;;868.77;;
7239;SDS011;3661;53.288;10.458;2023-11-19T04:57:07;930.13;;;851.93;;
7239;SDS011;3661;53.288;10.458;2023-11-19T04:59:41;939.80;;;861.20;;
7239;SDS011;3661;53.288;10.458;2023-11-19T05:02:14;922.33;;;843.88;;
7239;SDS011;3661;53.288;10.458;2023-11-19T05:04:46;939.40;;;861.22;;
7239;SDS011;3661;53.288;10.458;2023-11-19T05:07:19;924.20;;;846.27;;
7239;SDS011;3661;53.288;10.458;2023-11-19T05:09:51;934.08;;;855.97;;
7239;SDS011;3661;53.288;10.458;2023-11-19T05:12:24;947.83;;;869.23;;
7239;SDS011;3661;53.288;10.458;2023-11-19T05:14:56;952.67;;;873.97;;
7239;SDS011;3661;53.288;10.458;2023-11-19T05:17:30;966.80;;;887.72;;
7239;SDS011;3661;53.288;10.458;2023-11-19T05:20:04;951.07;;;872.40;;
7239;SDS011;3661;53.288;10.458;2023-11-19T05:22:43;933.03;;;854.40;;
7239;SDS011;3661;53.288;10.458;2023-11-19T05:25:16;964.95;;;885.28;;
7239;SDS011;3661;53.288;10.458;2023-11-19T05:27:49;969.70;;;890.13;;
7239;SDS011;3661;53.288;10.458;2023-11-19T05:30:21;971.80;;;891.75;;
7239;SDS011;3661;53.288;10.458;2023-11-19T05:32:54;970.10;;;890.00;;
7239;SDS011;3661;53.288;10.458;2023-11-19T05:35:26;981.10;;;900.78;;
7239;SDS011;3661;53.288;10.458;2023-11-19T05:38:01;974.70;;;894.40;;
7239;SDS011;3661;53.288;10.458;2023-11-19T05:40:36;985.65;;;905.28;;
7239;SDS011;3661;53.288;10.458;2023-11-19T05:43:09;967.08;;;886.72;;
7239;SDS011;3661;53.288;10.458;2023-11-19T05:45:41;988.45;;;907.05;;
7239;SDS011;3661;53.288;10.458;2023-11-19T05:48:15;986.10;;;904.80;;
7239;SDS011;3661;53.288;10.458;2023-11-19T05:50:47;992.85;;;912.05;;
7239;SDS011;3661;53.288;10.458;2023-11-19T05:53:20;989.28;;;908.33;;
7239;SDS011;3661;53.288;10.458;2023-11-19T05:55:52;1011.77;;;931.10;;
7239;SDS011;3661;53.288;10.458;2023-11-19T05:58:26;1023.28;;;942.28;;
7239;SDS011;3661;53.288;10.458;2023-11-19T06:00:59;1055.65;;;974.65;;
7239;SDS011;3661;53.288;10.458;2023-11-19T06:03:34;1057.18;;;975.65;;
7239;SDS011;3661;53.288;10.458;2023-11-19T06:06:06;988.60;;;907.00;;
7239;SDS011;3661;53.288;10.458;2023-11-19T06:08:39;1019.37;;;937.30;;
7239;SDS011;3661;53.288;10.458;2023-11-19T06:11:12;1002.20;;;920.38;;
7239;SDS011;3661;53.288;10.458;2023-11-19T06:13:48;1033.85;;;952.13;;
7239;SDS011;3661;53.288;10.458;2023-11-19T06:16:21;1019.03;;;936.67;;
7239;SDS011;3661;53.288;10.458;2023-11-19T06:18:54;1029.25;;;947.08;;
7239;SDS011;3661;53.288;10.458;2023-11-19T06:21:28;1100.70;;;999.90;;
7239;SDS011;3661;53.288;10.458;2023-11-19T06:24:00;1068.43;;;986.33;;
7239;SDS011;3661;53.288;10.458;2023-11-19T06:26:32;1095.97;;;999.90;;
7239;SDS011;3661;53.288;10.458;2023-11-19T06:29:04;1101.68;;;999.90;;
7239;SDS011;3661;53.288;10.458;2023-11-19T06:31:40;1155.82;;;999.90;;
7239;SDS011;3661;53.288;10.458;2023-11-19T06:34:13;1122.80;;;999.90;;
7239;SDS011;3661;53.288;10.458;2023-11-19T06:36:46;1094.32;;;999.90;;
7239;SDS011;3661;53.288;10.458;2023-11-19T06:39:18;1158.10;;;999.90;;
7239;SDS011;3661;53.288;10.458;2023-11-19T06:44:45;1162.67;;;999.90;;
7239;SDS011;3661;53.288;10.458;2023-11-19T06:47:17;1187.22;;;999.90;;
7239;SDS011;3661;53.288;10.458;2023-11-19T06:49:50;1177.15;;;999.90;;
7239;SDS011;3661;53.288;10.458;2023-11-19T06:52:22;1188.70;;;999.90;;
7239;SDS011;3661;53.288;10.458;2023-11-19T06:54:55;1199.83;;;999.90;;
7239;SDS011;3661;53.288;10.458;2023-11-19T06:57:27;1192.60;;;999.90;;
7239;SDS011;3661;53.288;10.458;2023-11-19T06:59:59;1226.93;;;999.90;;
7239;SDS011;3661;53.288;10.458;2023-11-19T07:02:31;1142.95;;;999.90;;
7239;SDS011;3661;53.288;10.458;2023-11-19T07:05:05;1222.63;;;999.90;;
7239;SDS011;3661;53.288;10.458;2023-11-19T07:07:38;1203.20;;;999.90;;
7239;SDS011;3661;53.288;10.458;2023-11-19T07:10:10;1195.97;;;999.90;;
7239;SDS011;3661;53.288;10.458;2023-11-19T07:12:42;1219.60;;;999.90;;
7239;SDS011;3661;53.288;10.458;2023-11-19T07:15:15;1225.38;;;999.90;;
7239;SDS011;3661;53.288;10.458;2023-11-19T07:17:48;1220.22;;;999.90;;
7239;SDS011;3661;53.288;10.458;2023-11-19T07:20:21;1205.68;;;999.90;;
7239;SDS011;3661;53.288;10.458;2023-11-19T07:22:53;1246.05;;;999.90;;
7239;SDS011;3661;53.288;10.458;2023-11-19T07:25:27;1271.78;;;999.90;;
7239;SDS011;3661;53.288;10.458;2023-11-19T07:28:05;1300.40;;;999.90;;
7239;SDS011;3661;53.288;10.458;2023-11-19T07:30:37;1258.80;;;999.90;;
7239;SDS011;3661;53.288;10.458;2023-11-19T07:33:10;1288.05;;;999.90;;
7239;SDS011;3661;53.288;10.458;2023-11-19T07:35:43;1281.18;;;999.90;;
7239;SDS011;3661;53.288;10.458;2023-11-19T07:38:15;1319.35;;;999.90;;
7239;SDS011;3661;53.288;10.458;2023-11-19T07:40:50;1277.70;;;999.90;;
7239;SDS011;3661;53.288;10.458;2023-11-19T07:43:22;1336.78;;;999.90;;
7239;SDS011;3661;53.288;10.458;2023-11-19T07:45:54;1330.72;;;999.90;;
7239;SDS011;3661;53.288;10.458;2023-11-19T07:48:29;1324.10;;;999.90;;
7239;SDS011;3661;53.288;10.458;2023-11-19T07:51:03;1356.68;;;999.90;;
7239;SDS011;3661;53.288;10.458;2023-11-19T07:53:35;1359.60;;;999.90;;
7239;SDS011;3661;53.288;10.458;2023-11-19T07:56:08;1352.43;;;999.90;;
7239;SDS011;3661;53.288;10.458;2023-11-19T07:58:41;1352.05;;;999.90;;
7239;SDS011;3661;53.288;10.458;2023-11-19T08:01:15;1367.63;;;999.90;;
7239;SDS011;3661;53.288;10.458;2023-11-19T08:03:49;1366.33;;;999.90;;
7239;SDS011;3661;53.288;10.458;2023-11-19T08:06:22;1368.70;;;999.90;;
7239;SDS011;3661;53.288;10.458;2023-11-19T08:08:54;1381.47;;;999.90;;
7239;SDS011;3661;53.288;10.458;2023-11-19T08:11:26;1400.00;;;999.90;;
7239;SDS011;3661;53.288;10.458;2023-11-19T08:14:03;1418.57;;;999.90;;
7239;SDS011;3661;53.288;10.458;2023-11-19T08:16:35;1385.50;;;999.90;;
7239;SDS011;3661;53.288;10.458;2023-11-19T08:19:07;1397.40;;;999.90;;
7239;SDS011;3661;53.288;10.458;2023-11-19T08:21:44;1413.88;;;999.90;;
7239;SDS011;3661;53.288;10.458;2023-11-19T08:24:16;1414.65;;;999.90;;
7239;SDS011;3661;53.288;10.458;2023-11-19T08:26:48;1432.82;;;999.90;;
7239;SDS011;3661;53.288;10.458;2023-11-19T08:29:23;1416.75;;;999.90;;
7239;SDS011;3661;53.288;10.458;2023-11-19T08:31:55;1401.35;;;999.90;;
7239;SDS011;3661;53.288;10.458;2023-11-19T08:34:27;1425.85;;;999.90;;
7239;SDS011;3661;53.288;10.458;2023-11-19T08:37:01;1423.15;;;999.90;;
7239;SDS011;3661;53.288;10.458;2023-11-19T08:39:33;1438.63;;;999.90;;
7239;SDS011;3661;53.288;10.458;2023-11-19T08:42:07;1446.72;;;999.90;;
7239;SDS011;3661;53.288;10.458;2023-11-19T08:44:40;1427.95;;;999.90;;
7239;SDS011;3661;53.288;10.458;2023-11-19T08:47:13;1437.13;;;999.90;;
7239;SDS011;3661;53.288;10.458;2023-11-19T08:49:46;1420.45;;;999.90;;
7239;SDS011;3661;53.288;10.458;2023-11-19T08:52:19;1429.25;;;999.90;;
7239;SDS011;3661;53.288;10.458;2023-11-19T08:54:53;1452.78;;;999.90;;
7239;SDS011;3661;53.288;10.458;2023-11-19T08:57:26;1441.30;;;999.90;;
7239;SDS011;3661;53.288;10.458;2023-11-19T08:59:58;1452.80;;;999.90;;
7239;SDS011;3661;53.288;10.458;2023-11-19T09:02:30;1452.60;;;999.90;;
7239;SDS011;3661;53.288;10.458;2023-11-19T09:05:03;1459.22;;;999.90;;
7239;SDS011;3661;53.288;10.458;2023-11-19T09:07:40;1467.53;;;999.90;;
7239;SDS011;3661;53.288;10.458;2023-11-19T09:10:12;1470.17;;;999.90;;
7239;SDS011;3661;53.288;10.458;2023-11-19T09:12:44;1477.05;;;999.90;;
7239;SDS011;3661;53.288;10.458;2023-11-19T09:15:16;1469.05;;;999.90;;
7239;SDS011;3661;53.288;10.458;2023-11-19T09:17:48;1467.28;;;999.90;;
7239;SDS011;3661;53.288;10.458;2023-11-19T09:20:20;1452.93;;;999.90;;
7239;SDS011;3661;53.288;10.458;2023-11-19T09:22:56;1461.00;;;999.90;;
7239;SDS011;3661;53.288;10.458;2023-11-19T09:25:28;1477.32;;;999.90;;
7239;SDS011;3661;53.288;10.458;2023-11-19T09:28:00;1454.70;;;999.90;;
7239;SDS011;3661;53.288;10.458;2023-11-19T09:30:32;1461.53;;;999.90;;
7239;SDS011;3661;53.288;10.458;2023-11-19T09:33:04;1456.73;;;999.90;;
7239;SDS011;3661;53.288;10.458;2023-11-19T09:35:36;1478.13;;;999.90;;
7239;SDS011;3661;53.288;10.458;2023-11-19T09:38:10;1481.40;;;999.90;;
7239;SDS011;3661;53.288;10.458;2023-11-19T09:40:42;1450.90;;;999.90;;
7239;SDS011;3661;53.288;10.458;2023-11-19T09:43:15;1478.88;;;999.90;;
7239;SDS011;3661;53.288;10.458;2023-11-19T09:45:47;1474.47;;;999.90;;
7239;SDS011;3661;53.288;10.458;2023-11-19T09:48:21;1467.18;;;999.90;;
7239;SDS011;3661;53.288;10.458;2023-11-19T09:50:56;1472.35;;;999.90;;
7239;SDS011;3661;53.288;10.458;2023-11-19T09:53:29;1476.17;;;999.90;;
7239;SDS011;3661;53.288;10.458;2023-11-19T09:56:02;1484.25;;;999.90;;
7239;SDS011;3661;53.288;10.458;2023-11-19T09:58:35;1469.32;;;999.90;;
7239;SDS011;3661;53.288;10.458;2023-11-19T10:01:07;1475.97;;;999.90;;
7239;SDS011;3661;53.288;10.458;2023-11-19T10:03:42;1473.43;;;999.90;;
7239;SDS011;3661;53.288;10.458;2023-11-19T10:06:18;1490.38;;;999.90;;
7239;SDS011;3661;53.288;10.458;2023-11-19T10:08:52;1476.10;;;999.90;;
7239;SDS011;3661;53.288;10.458;2023-11-19T10:11:25;1477.63;;;999.90;;
7239;SDS011;3661;53.288;10.458;2023-11-19T10:13:57;1491.30;;;999.90;;
7239;SDS011;3661;53.288;10.458;2023-11-19T10:16:37;1483.00;;;999.90;;
7239;SDS011;3661;53.288;10.458;2023-11-19T10:19:12;1480.55;;;999.90;;
7239;SDS011;3661;53.288;10.458;2023-11-19T10:21:51;1490.32;;;999.90;;
7239;SDS011;3661;53.288;10.458;2023-11-19T10:24:32;1483.03;;;999.90;;
7239;SDS011;3661;53.288;10.458;2023-11-19T10:27:06;1494.00;;;999.90;;
7239;SDS011;3661;53.288;10.458;2023-11-19T10:29:38;1508.90;;;999.90;;
7239;SDS011;3661;53.288;10.458;2023-11-19T10:32:10;1490.25;;;999.90;;
7239;SDS011;3661;53.288;10.458;2023-11-19T10:34:44;1494.43;;;999.90;;
7239;SDS011;3661;53.288;10.458;2023-11-19T10:37:27;1507.28;;;999.90;;
7239;SDS011;3661;53.288;10.458;2023-11-19T10:40:08;1509.40;;;999.90;;
7239;SDS011;3661;53.288;10.458;2023-11-19T10:42:41;1494.97;;;999.90;;
7239;SDS011;3661;53.288;10.458;2023-11-19T10:45:23;1500.25;;;999.90;;
7239;SDS011;3661;53.288;10.458;2023-11-19T10:47:56;1516.60;;;999.90;;
7239;SDS011;3661;53.288;10.458;2023-11-19T10:50:29;1505.23;;;999.90;;
7239;SDS011;3661;53.288;10.458;2023-11-19T10:53:01;1516.72;;;999.90;;
7239;SDS011;3661;53.288;10.458;2023-11-19T10:55:36;1524.90;;;999.90;;
7239;SDS011;3661;53.288;10.458;2023-11-19T10:58:09;1501.90;;;999.90;;
7239;SDS011;3661;53.288;10.458;2023-11-19T11:00:43;1484.95;;;999.90;;
7239;SDS011;3661;53.288;10.458;2023-11-19T11:03:16;1500.45;;;999.90;;
7239;SDS011;3661;53.288;10.458;2023-11-19T11:05:50;1494.93;;;999.90;;
7239;SDS011;3661;53.288;10.458;2023-11-19T11:08:23;1492.50;;;999.90;;
7239;SDS011;3661;53.288;10.458;2023-11-19T11:10:56;1505.05;;;999.90;;
7239;SDS011;3661;53.288;10.458;2023-11-19T11:13:30;1516.30;;;999.90;;
7239;SDS011;3661;53.288;10.458;2023-11-19T11:16:04;1513.10;;;999.90;;
7239;SDS011;3661;53.288;10.458;2023-11-19T11:18:38;1500.80;;;999.90;;
7239;SDS011;3661;53.288;10.458;2023-11-19T11:21:11;1518.18;;;999.90;;
7239;SDS011;3661;53.288;10.458;2023-11-19T11:23:52;1507.47;;;999.90;;
7239;SDS011;3661;53.288;10.458;2023-11-19T11:26:53;1538.90;;;999.90;;
7239;SDS011;3661;53.288;10.458;2023-11-19T11:29:35;1533.30;;;999.90;;
7239;SDS011;3661;53.288;10.458;2023-11-19T11:32:17;1529.15;;;999.90;;
7239;SDS011;3661;53.288;10.458;2023-11-19T11:37:55;1519.68;;;999.90;;
7239;SDS011;3661;53.288;10.458;2023-11-19T11:40:33;1551.35;;;999.90;;
7239;SDS011;3661;53.288;10.458;2023-11-19T11:43:10;1526.95;;;999.90;;
7239;SDS011;3661;53.288;10.458;2023-11-19T11:49:25;1543.43;;;999.90;;
7239;SDS011;3661;53.288;10.458;2023-11-19T11:51:58;1546.97;;;999.90;;
7239;SDS011;3661;53.288;10.458;2023-11-19T11:54:31;1544.35;;;999.90;;
7239;SDS011;3661;53.288;10.458;2023-11-19T11:57:07;1547.10;;;999.90;;
7239;SDS011;3661;53.288;10.458;2023-11-19T11:59:46;1549.00;;;999.90;;
7239;SDS011;3661;53.288;10.458;2023-11-19T12:02:20;1568.95;;;999.90;;
7239;SDS011;3661;53.288;10.458;2023-11-19T12:04:53;1558.15;;;999.90;;
7239;SDS011;3661;53.288;10.458;2023-11-19T12:07:26;1559.90;;;999.90;;
7239;SDS011;3661;53.288;10.458;2023-11-19T12:10:05;1569.88;;;999.90;;
7239;SDS011;3661;53.288;10.458;2023-11-19T12:12:39;1566.57;;;999.90;;
7239;SDS011;3661;53.288;10.458;2023-11-19T12:15:13;1576.38;;;999.90;;
7239;SDS011;3661;53.288;10.458;2023-11-19T12:17:49;1575.95;;;999.90;;
7239;SDS011;3661;53.288;10.458;2023-11-19T12:20:21;1590.83;;;999.90;;
7239;SDS011;3661;53.288;10.458;2023-11-19T12:22:55;1578.53;;;999.90;;
7239;SDS011;3661;53.288;10.458;2023-11-19T12:25:27;1573.10;;;999.90;;
7239;SDS011;3661;53.288;10.458;2023-11-19T12:28:05;1581.45;;;999.90;;
7239;SDS011;3661;53.288;10.458;2023-11-19T12:30:44;1592.05;;;999.90;;
7239;SDS011;3661;53.288;10.458;2023-11-19T12:33:18;1580.00;;;999.90;;
7239;SDS011;3661;53.288;10.458;2023-11-19T12:35:51;1586.30;;;999.90;;
7239;SDS011;3661;53.288;10.458;2023-11-19T12:38:24;1555.15;;;999.90;;
7239;SDS011;3661;53.288;10.458;2023-11-19T12:41:03;1577.47;;;999.90;;
7239;SDS011;3661;53.288;10.458;2023-11-19T12:43:36;1570.57;;;999.90;;
7239;SDS011;3661;53.288;10.458;2023-11-19T12:46:18;1572.70;;;999.90;;
7239;SDS011;3661;53.288;10.458;2023-11-19T12:49:05;1586.90;;;999.90;;
7239;SDS011;3661;53.288;10.458;2023-11-19T12:51:37;1592.40;;;999.90;;
7239;SDS011;3661;53.288;10.458;2023-11-19T12:54:09;1575.20;;;999.90;;
7239;SDS011;3661;53.288;10.458;2023-11-19T12:56:51;1592.75;;;999.90;;
7239;SDS011;3661;53.288;10.458;2023-11-19T12:59:25;1594.88;;;999.90;;
7239;SDS011;3661;53.288;10.458;2023-11-19T13:02:01;1592.05;;;999.90;;
7239;SDS011;3661;53.288;10.458;2023-11-19T13:04:35;1590.28;;;999.90;;
7239;SDS011;3661;53.288;10.458;2023-11-19T13:07:07;1595.68;;;999.90;;
7239;SDS011;3661;53.288;10.458;2023-11-19T13:09:40;1584.38;;;999.90;;
7239;SDS011;3661;53.288;10.458;2023-11-19T13:12:12;1580.93;;;999.90;;
7239;SDS011;3661;53.288;10.458;2023-11-19T13:14:45;1597.70;;;999.90;;
7239;SDS011;3661;53.288;10.458;2023-11-19T13:17:21;1571.93;;;999.90;;
7239;SDS011;3661;53.288;10.458;2023-11-19T13:19:53;1580.18;;;999.90;;
7239;SDS011;3661;53.288;10.458;2023-11-19T13:22:27;1582.80;;;999.90;;
7239;SDS011;3661;53.288;10.458;2023-11-19T13:24:59;1580.10;;;999.90;;
7239;SDS011;3661;53.288;10.458;2023-11-19T13:27:31;1584.53;;;999.90;;
7239;SDS011;3661;53.288;10.458;2023-11-19T13:30:04;1596.30;;;999.90;;
7239;SDS011;3661;53.288;10.458;2023-11-19T13:32:38;1578.57;;;999.90;;
7239;SDS011;3661;53.288;10.458;2023-11-19T13:35:11;1600.13;;;999.90;;
7239;SDS011;3661;53.288;10.458;2023-11-19T13:37:43;1585.00;;;999.90;;
7239;SDS011;3661;53.288;10.458;2023-11-19T13:40:16;1576.38;;;999.90;;
7239;SDS011;3661;53.288;10.458;2023-11-19T13:42:49;1586.68;;;999.90;;
7239;SDS011;3661;53.288;10.458;2023-11-19T13:45:22;1585.43;;;999.90;;
7239;SDS011;3661;53.288;10.458;2023-11-19T13:47:55;1582.20;;;999.90;;
7239;SDS011;3661;53.288;10.458;2023-11-19T13:50:29;1580.50;;;999.90;;
7239;SDS011;3661;53.288;10.458;2023-11-19T13:53:02;1547.88;;;999.90;;
7239;SDS011;3661;53.288;10.458;2023-11-19T13:55:38;1552.80;;;999.90;;
7239;SDS011;3661;53.288;10.458;2023-11-19T13:58:13;1558.53;;;999.90;;
7239;SDS011;3661;53.288;10.458;2023-11-19T14:00:49;1551.70;;;999.90;;
7239;SDS011;3661;53.288;10.458;2023-11-19T14:03:22;1554.18;;;999.90;;
7239;SDS011;3661;53.288;10.458;2023-11-19T14:05:55;1578.05;;;999.90;;
7239;SDS011;3661;53.288;10.458;2023-11-19T14:08:29;1552.10;;;999.90;;
7239;SDS011;3661;53.288;10.458;2023-11-19T14:11:01;1559.80;;;999.90;;
7239;SDS011;3661;53.288;10.458;2023-11-19T14:13:33;1558.93;;;999.90;;
7239;SDS011;3661;53.288;10.458;2023-11-19T14:16:05;1552.68;;;999.90;;
7239;SDS011;3661;53.288;10.458;2023-11-19T14:18:40;1558.70;;;999.90;;
7239;SDS011;3661;53.288;10.458;2023-11-19T14:21:15;1547.78;;;999.90;;
7239;SDS011;3661;53.288;10.458;2023-11-19T14:23:47;1551.28;;;999.90;;
7239;SDS011;3661;53.288;10.458;2023-11-19T14:26:19;1561.35;;;999.90;;
7239;SDS011;3661;53.288;10.458;2023-11-19T14:28:50;1534.70;;;999.90;;
7239;SDS011;3661;53.288;10.458;2023-11-19T14:31:23;1554.95;;;999.90;;
7239;SDS011;3661;53.288;10.458;2023-11-19T14:34:00;1528.83;;;999.90;;
7239;SDS011;3661;53.288;10.458;2023-11-19T14:36:32;1535.78;;;999.90;;
7239;SDS011;3661;53.288;10.458;2023-11-19T14:39:05;1522.30;;;999.90;;
7239;SDS011;3661;53.288;10.458;2023-11-19T14:41:37;1540.40;;;999.90;;
7239;SDS011;3661;53.288;10.458;2023-11-19T14:44:09;1528.28;;;999.90;;
7239;SDS011;3661;53.288;10.458;2023-11-19T14:46:41;1530.13;;;999.90;;